Ransom Canyon, Texas
Current Conditions -  °F | °C
As of 10:53 AM on Friday 28 Nov 2014 (Local Time) from KLBB Reporting Station
Broken Clouds Broken Clouds  
Wind Chill: 17°   Ceiling: 30000
Heat Index: 17°   Visibility: 10mi
Dew Point: -1°   Wind: 13mph
Humidity: 30%   Direction: 240°WSW
Pressure: 30.11"   Gusts: NA
Location:  33.53°N, 101.68°W
Report Text: KLBB 281653Z 24011KT 10SM SCT260 BKN300 17/M01 A3011 RMK AO2 SLP172 T01671011
Loading
Personal Weather Stations






























Interactive Weather Map New forecast layout! Learn more

10-Day Weather Forecast

Advertisements
Track Severe Weather on mobile